Time;durP1;ratioP1;P1;durP2;ratioP2;P2;SDS_P1;SDS_P2;PMS_P1;PMS_P2;Temp;Humidity;BMP_temperature;BMP_pressure;BME280_temperature;BME280_humidity;BME280_pressure;Samples;Min_cycle;Max_cycle;Signal;HPM_P1;HPM_P2
2021/03/13 00:00:51;;;;;;;3.80;1.53;;;7.10;99.90;;;;;;5070688;28;21009;-71
2021/03/13 00:03:37;;;;;;;2.40;1.20;;;7.10;99.90;;;;;;5072196;28;20442;-71
2021/03/13 00:06:23;;;;;;;2.43;1.03;;;7.00;99.90;;;;;;5071908;28;20521;-71
2021/03/13 00:09:08;;;;;;;2.20;1.10;;;6.90;99.90;;;;;;5068252;28;20483;-71
2021/03/13 00:11:53;;;;;;;2.43;1.07;;;6.90;99.90;;;;;;5071702;28;20474;-71
2021/03/13 00:14:38;;;;;;;3.27;1.50;;;7.00;99.90;;;;;;5068020;28;21865;-71
2021/03/13 00:17:23;;;;;;;2.63;1.00;;;6.90;99.90;;;;;;5071412;28;20497;-71
2021/03/13 00:20:10;;;;;;;2.33;0.87;;;6.90;99.90;;;;;;5068743;28;20477;-70
2021/03/13 00:22:58;;;;;;;2.70;1.00;;;6.90;99.90;;;;;;5067160;28;20453;-71
2021/03/13 00:25:44;;;;;;;3.85;1.20;;;6.90;99.90;;;;;;5070523;28;21007;-71
2021/03/13 00:28:29;;;;;;;3.88;1.02;;;7.00;99.90;;;;;;5072407;28;20211;-71
2021/03/13 00:31:14;;;;;;;3.70;1.10;;;7.10;99.90;;;;;;5071071;28;20246;-71
2021/03/13 00:33:59;;;;;;;1.50;0.83;;;7.00;99.90;;;;;;5068743;28;20824;-71
2021/03/13 00:36:44;;;;;;;2.50;1.20;;;7.10;99.90;;;;;;5061618;28;21033;-71
2021/03/13 00:39:30;;;;;;;4.90;2.17;;;7.00;99.90;;;;;;5068238;28;20535;-72
2021/03/13 00:42:15;;;;;;;4.23;1.13;;;6.90;99.90;;;;;;5069433;28;20743;-71
2021/03/13 00:45:01;;;;;;;2.00;1.20;;;6.90;99.90;;;;;;5068746;28;20497;-72
2021/03/13 00:47:46;;;;;;;3.20;0.90;;;6.90;99.90;;;;;;5067714;28;20461;-71
2021/03/13 00:50:34;;;;;;;3.20;1.10;;;6.90;99.90;;;;;;5070921;28;20425;-71
2021/03/13 00:53:19;;;;;;;1.50;0.80;;;6.90;99.90;;;;;;5069080;28;20696;-71
2021/03/13 00:56:06;;;;;;;4.22;0.93;;;6.90;99.90;;;;;;5070381;28;20617;-71
2021/03/13 00:58:51;;;;;;;2.17;1.20;;;7.00;99.90;;;;;;5064620;28;20619;-71
2021/03/13 01:01:35;;;;;;;2.57;0.90;;;7.00;99.90;;;;;;5070320;28;21575;-71
2021/03/13 01:04:22;;;;;;;2.00;0.77;;;7.00;99.90;;;;;;5065171;28;20471;-71
2021/03/13 01:07:07;;;;;;;1.60;0.90;;;7.00;99.90;;;;;;5063426;28;20486;-72
2021/03/13 01:09:52;;;;;;;4.95;1.08;;;7.00;99.90;;;;;;5064092;28;20200;-71
2021/03/13 01:12:38;;;;;;;2.87;1.30;;;7.10;99.90;;;;;;5065382;28;20326;-72
2021/03/13 01:15:24;;;;;;;4.80;1.47;;;7.10;99.90;;;;;;5063142;28;20981;-71
2021/03/13 01:18:09;;;;;;;1.52;0.95;;;7.10;99.90;;;;;;5068265;28;20449;-71
2021/03/13 01:20:54;;;;;;;3.57;0.90;;;7.20;99.90;;;;;;5066673;28;20296;-71
2021/03/13 01:23:39;;;;;;;4.15;1.42;;;7.10;99.90;;;;;;5066565;28;20504;-72
2021/03/13 01:26:25;;;;;;;8.30;1.30;;;7.20;99.90;;;;;;5066735;28;20582;-71
2021/03/13 01:29:10;;;;;;;2.33;1.17;;;7.20;99.90;;;;;;5068029;28;20746;-71
2021/03/13 01:32:02;;;;;;;2.60;1.23;;;7.10;99.90;;;;;;5058561;28;20567;-72
2021/03/13 01:34:48;;;;;;;3.37;1.33;;;7.10;99.90;;;;;;5066235;28;20558;-72
2021/03/13 01:37:33;;;;;;;3.30;1.00;;;7.20;99.90;;;;;;5066695;28;20417;-72
2021/03/13 01:40:18;;;;;;;6.33;1.30;;;7.30;99.90;;;;;;5064434;28;20442;-71
2021/03/13 01:43:03;;;;;;;3.87;1.00;;;7.20;99.90;;;;;;5067585;28;20983;-71
2021/03/13 01:45:50;;;;;;;3.80;1.03;;;7.30;99.90;;;;;;5064002;28;20448;-71
2021/03/13 01:48:38;;;;;;;10.30;1.80;;;7.30;99.90;;;;;;5062712;28;20525;-71
2021/03/13 01:51:23;;;;;;;1.87;0.93;;;7.20;99.90;;;;;;5064448;28;20450;-71
2021/03/13 01:54:08;;;;;;;2.67;1.08;;;7.20;99.90;;;;;;5060861;28;21120;-71
2021/03/13 01:56:53;;;;;;;5.63;1.90;;;7.20;99.90;;;;;;5060936;28;20228;-71
2021/03/13 01:59:38;;;;;;;2.60;1.40;;;7.30;99.90;;;;;;5063685;28;20972;-71
2021/03/13 02:02:25;;;;;;;3.53;1.27;;;7.30;99.90;;;;;;5066947;28;21009;-71
2021/03/13 02:05:17;;;;;;;3.50;1.37;;;7.30;99.90;;;;;;5065163;28;20453;-71
2021/03/13 02:08:06;;;;;;;4.30;1.67;;;7.30;99.90;;;;;;5065399;28;20442;-71
2021/03/13 02:11:01;;;;;;;2.10;1.10;;;7.40;99.90;;;;;;5067484;28;20443;-71
2021/03/13 02:13:52;;;;;;;5.30;1.20;;;7.40;99.90;;;;;;5069431;28;20462;-71
2021/03/13 02:16:44;;;;;;;4.10;1.50;;;7.40;99.90;;;;;;5059865;28;20463;-71
2021/03/13 02:19:53;;;;;;;2.60;1.40;;;7.40;99.90;;;;;;5067312;28;20925;-72
2021/03/13 02:22:40;;;;;;;4.63;1.60;;;7.40;99.90;;;;;;5057693;28;20470;-71
2021/03/13 02:25:39;;;;;;;2.83;2.00;;;7.40;99.90;;;;;;5063145;28;20501;-71
2021/03/13 02:28:32;;;;;;;1.90;1.20;;;7.50;99.90;;;;;;5066869;28;20467;-71
2021/03/13 02:31:19;;;;;;;2.60;1.13;;;7.40;99.90;;;;;;5066397;28;20455;-71
2021/03/13 02:34:06;;;;;;;4.73;1.20;;;7.20;99.90;;;;;;5058876;28;20476;-71
2021/03/13 02:36:52;;;;;;;6.40;1.52;;;7.20;99.90;;;;;;5063709;28;20474;-71
2021/03/13 02:39:41;;;;;;;2.70;1.50;;;7.30;99.90;;;;;;5066410;28;20254;-71
2021/03/13 02:42:27;;;;;;;4.17;1.27;;;7.30;99.90;;;;;;5064472;28;20420;-72
2021/03/13 02:45:13;;;;;;;6.07;1.60;;;7.30;99.90;;;;;;5067242;28;20595;-71
2021/03/13 02:48:03;;;;;;;2.13;1.20;;;7.30;99.90;;;;;;5066205;28;20594;-72
2021/03/13 02:50:50;;;;;;;3.60;1.30;;;7.30;99.90;;;;;;5063844;28;21089;-72
2021/03/13 02:53:37;;;;;;;2.10;1.40;;;7.20;99.90;;;;;;5062695;28;20467;-71
2021/03/13 02:56:23;;;;;;;2.63;1.40;;;7.20;99.90;;;;;;5061053;28;20483;-71
2021/03/13 02:59:10;;;;;;;2.90;1.47;;;7.10;99.90;;;;;;5064717;28;20437;-72
2021/03/13 03:01:57;;;;;;;6.30;1.53;;;7.10;99.90;;;;;;5057896;28;20453;-71
2021/03/13 03:04:44;;;;;;;2.77;1.30;;;7.20;99.90;;;;;;5063257;28;20428;-71
2021/03/13 03:07:29;;;;;;;3.37;1.50;;;7.10;99.90;;;;;;5060974;28;20519;-71
2021/03/13 03:10:16;;;;;;;5.10;1.50;;;7.10;99.90;;;;;;5065629;28;20478;-71
2021/03/13 03:13:02;;;;;;;4.53;1.70;;;7.10;99.90;;;;;;5065328;28;20466;-70
2021/03/13 03:15:48;;;;;;;3.73;1.70;;;7.00;99.90;;;;;;5066714;28;20475;-72
2021/03/13 03:18:34;;;;;;;3.77;1.97;;;7.10;99.90;;;;;;5071398;28;20479;-71
2021/03/13 03:21:21;;;;;;;3.27;1.60;;;7.10;99.90;;;;;;5063563;28;20542;-72
2021/03/13 03:24:08;;;;;;;5.43;1.47;;;7.20;99.90;;;;;;5059161;28;20811;-72
2021/03/13 03:26:53;;;;;;;2.70;1.30;;;7.20;99.90;;;;;;5067340;28;21005;-71
2021/03/13 03:29:39;;;;;;;2.90;1.03;;;7.20;99.90;;;;;;5061056;28;20809;-72
2021/03/13 03:32:24;;;;;;;10.27;1.90;;;7.30;99.90;;;;;;5060836;28;20957;-71
2021/03/13 03:35:10;;;;;;;4.53;1.50;;;7.30;99.90;;;;;;5067522;28;20814;-71
2021/03/13 03:37:59;;;;;;;3.80;1.20;;;7.30;99.90;;;;;;5064663;28;20501;-71
2021/03/13 03:40:46;;;;;;;2.33;1.10;;;7.30;99.90;;;;;;5058277;28;20451;-72
2021/03/13 03:43:37;;;;;;;5.03;1.30;;;7.30;99.90;;;;;;5073559;28;20530;-72
2021/03/13 03:46:24;;;;;;;1.87;1.10;;;7.20;99.90;;;;;;5057469;28;21053;-71
2021/03/13 03:49:12;;;;;;;6.10;1.43;;;7.30;99.90;;;;;;5061147;28;20978;-71
2021/03/13 03:51:59;;;;;;;4.13;1.23;;;7.30;99.90;;;;;;5057729;28;20522;-71
2021/03/13 03:54:45;;;;;;;3.93;1.10;;;7.40;99.90;;;;;;5057673;28;21049;-72
2021/03/13 03:57:31;;;;;;;2.10;1.10;;;7.40;99.90;;;;;;5064439;28;20439;-71
2021/03/13 04:00:19;;;;;;;1.77;0.90;;;7.40;99.90;;;;;;5062035;28;20425;-71
2021/03/13 04:03:10;;;;;;;2.60;1.27;;;7.30;99.90;;;;;;5060606;28;20460;-71
2021/03/13 04:05:56;;;;;;;2.50;1.30;;;7.30;99.90;;;;;;5064247;28;20552;-71
2021/03/13 04:08:44;;;;;;;3.70;0.80;;;7.30;99.90;;;;;;5059792;28;20505;-71
2021/03/13 04:11:31;;;;;;;5.77;1.40;;;7.30;99.90;;;;;;5060101;28;20493;-71
2021/03/13 04:14:17;;;;;;;2.40;0.90;;;7.30;99.90;;;;;;5065967;28;20458;-71
2021/03/13 04:17:03;;;;;;;2.17;0.90;;;7.30;99.90;;;;;;5061834;28;20494;-71
2021/03/13 04:19:49;;;;;;;2.30;0.80;;;7.30;99.90;;;;;;5061212;28;20446;-71
2021/03/13 04:22:35;;;;;;;3.00;1.33;;;7.40;99.90;;;;;;5058094;28;20501;-71
2021/03/13 04:25:21;;;;;;;2.03;0.90;;;7.40;99.90;;;;;;5064829;28;20509;-72
2021/03/13 04:28:07;;;;;;;7.13;0.70;;;7.40;99.90;;;;;;5061805;28;20481;-71
2021/03/13 04:30:53;;;;;;;2.33;0.87;;;7.20;99.90;;;;;;5062224;28;20453;-72
2021/03/13 04:33:39;;;;;;;2.60;0.97;;;7.20;99.90;;;;;;5063183;28;20531;-71
2021/03/13 04:36:28;;;;;;;2.20;1.00;;;7.10;99.90;;;;;;5056178;28;20510;-72
2021/03/13 04:39:14;;;;;;;3.90;1.47;;;7.10;99.90;;;;;;5064404;28;20465;-71
2021/03/13 04:42:00;;;;;;;6.97;1.10;;;7.10;99.90;;;;;;5069221;28;20454;-71
2021/03/13 04:44:46;;;;;;;4.77;1.50;;;7.20;99.90;;;;;;5074299;28;21005;-71
2021/03/13 04:47:31;;;;;;;4.93;1.60;;;7.30;99.90;;;;;;5071482;28;20451;-71
2021/03/13 04:50:18;;;;;;;7.20;1.83;;;7.30;99.90;;;;;;5060537;28;20454;-72
2021/03/13 04:53:04;;;;;;;3.60;1.50;;;7.30;99.90;;;;;;5065894;28;20500;-71
2021/03/13 04:55:49;;;;;;;6.53;1.10;;;7.40;99.90;;;;;;5060851;28;20523;-71
2021/03/13 04:58:35;;;;;;;5.10;1.77;;;7.40;99.90;;;;;;5063991;28;20496;-71
2021/03/13 05:01:21;;;;;;;5.23;1.37;;;7.40;99.90;;;;;;5065838;28;20447;-71
2021/03/13 05:04:06;;;;;;;5.30;1.40;;;7.40;99.90;;;;;;5065173;28;20493;-72
2021/03/13 05:06:51;;;;;;;10.13;1.87;;;7.50;99.90;;;;;;5063465;28;20492;-73
2021/03/13 05:09:36;;;;;;;5.50;1.57;;;7.50;99.90;;;;;;5058516;28;20450;-71
2021/03/13 05:12:21;;;;;;;5.97;1.90;;;7.60;99.90;;;;;;5064470;28;20470;-71
2021/03/13 05:15:08;;;;;;;6.37;1.67;;;7.60;99.90;;;;;;5065442;28;20524;-71
2021/03/13 05:17:54;;;;;;;4.20;2.03;;;7.60;99.90;;;;;;5062679;28;20987;-71
2021/03/13 05:20:39;;;;;;;6.27;1.77;;;7.60;99.90;;;;;;5057799;28;20508;-71
2021/03/13 05:23:24;;;;;;;7.47;2.20;;;7.70;99.90;;;;;;5067168;28;20465;-72
2021/03/13 05:26:10;;;;;;;3.60;1.60;;;7.70;99.90;;;;;;5064888;28;20454;-71
2021/03/13 05:28:55;;;;;;;4.90;1.50;;;7.80;99.90;;;;;;5061456;28;20805;-72
2021/03/13 05:31:40;;;;;;;4.47;1.27;;;7.80;99.90;;;;;;5067892;28;20505;-71
2021/03/13 05:34:26;;;;;;;4.30;1.53;;;7.80;99.90;;;;;;5058437;28;20463;-71
2021/03/13 05:37:11;;;;;;;5.60;1.47;;;7.80;99.90;;;;;;5065388;28;20510;-71
2021/03/13 05:39:56;;;;;;;4.37;1.30;;;7.80;99.90;;;;;;5063291;28;20529;-71
2021/03/13 05:42:42;;;;;;;4.73;1.57;;;7.80;99.90;;;;;;5059201;28;20474;-71
2021/03/13 05:45:28;;;;;;;4.90;1.03;;;7.90;99.90;;;;;;5060329;28;20462;-71
2021/03/13 05:48:14;;;;;;;4.33;1.63;;;7.90;99.90;;;;;;5064898;28;20420;-72
2021/03/13 05:51:02;;;;;;;9.83;1.47;;;7.90;99.90;;;;;;5062913;28;20506;-71
2021/03/13 05:53:47;;;;;;;4.50;1.37;;;7.90;99.90;;;;;;5056478;28;20495;-71
2021/03/13 05:56:32;;;;;;;5.67;1.80;;;7.90;99.90;;;;;;5063913;28;20470;-71
2021/03/13 05:59:19;;;;;;;6.97;1.50;;;7.90;99.90;;;;;;5064306;28;20466;-71
2021/03/13 06:02:07;;;;;;;3.20;1.27;;;7.90;99.90;;;;;;5062965;28;20978;-71
2021/03/13 06:04:53;;;;;;;4.50;1.20;;;7.90;99.90;;;;;;5058331;28;20442;-71
2021/03/13 06:07:41;;;;;;;8.13;1.67;;;7.90;99.90;;;;;;5066520;28;20412;-71
2021/03/13 06:10:26;;;;;;;11.20;1.67;;;8.00;99.90;;;;;;5066081;28;20446;-72
2021/03/13 06:13:12;;;;;;;5.87;1.60;;;8.00;99.90;;;;;;5064732;28;20440;-71
2021/03/13 06:15:58;;;;;;;3.67;1.17;;;8.00;99.90;;;;;;5064999;28;20514;-71
2021/03/13 06:18:59;;;;;;;7.13;1.50;;;8.00;99.90;;;;;;5062112;28;20816;-72
2021/03/13 06:21:44;;;;;;;6.10;1.90;;;8.00;99.90;;;;;;5061058;28;20446;-71
2021/03/13 06:24:32;;;;;;;2.50;1.30;;;8.10;99.90;;;;;;5066795;28;20433;-71
2021/03/13 06:27:17;;;;;;;4.20;1.70;;;8.10;99.90;;;;;;5065443;28;20545;-71
2021/03/13 06:30:05;;;;;;;7.63;1.53;;;8.10;99.90;;;;;;5063414;28;20425;-72
2021/03/13 06:32:50;;;;;;;7.70;2.87;;;8.10;99.90;;;;;;5062248;28;20486;-72
2021/03/13 06:35:39;;;;;;;6.10;2.93;;;8.10;99.90;;;;;;5065976;28;20840;-71
2021/03/13 06:38:25;;;;;;;7.57;1.90;;;8.10;99.90;;;;;;5063260;28;20463;-72
2021/03/13 06:41:15;;;;;;;5.57;1.00;;;8.20;99.90;;;;;;5064958;28;20549;-71
2021/03/13 06:44:00;;;;;;;5.20;1.30;;;8.20;99.90;;;;;;5064001;28;20852;-71
2021/03/13 06:46:45;;;;;;;6.63;1.50;;;8.20;99.90;;;;;;5066619;28;21556;-72
2021/03/13 06:49:30;;;;;;;9.13;1.67;;;8.20;99.90;;;;;;5064096;28;20287;-71
2021/03/13 06:52:20;;;;;;;3.00;1.73;;;8.20;99.90;;;;;;5064543;28;20509;-72
2021/03/13 06:55:07;;;;;;;9.43;2.60;;;8.20;99.90;;;;;;5063956;28;20490;-72
2021/03/13 06:58:07;;;;;;;2.63;1.13;;;8.30;99.90;;;;;;5058225;28;20482;-71
2021/03/13 07:01:03;;;;;;;4.33;1.20;;;8.30;99.90;;;;;;5063385;28;20955;-71
2021/03/13 07:03:49;;;;;;;4.23;1.30;;;8.20;99.90;;;;;;5064912;28;20481;-71
2021/03/13 07:06:44;;;;;;;3.40;1.53;;;8.20;99.90;;;;;;5063209;28;20457;-71
2021/03/13 07:09:51;;;;;;;5.93;1.40;;;8.30;99.90;;;;;;5064080;28;20454;-70
2021/03/13 07:12:39;;;;;;;5.07;1.73;;;8.30;99.90;;;;;;5066342;28;20413;-71
2021/03/13 07:15:26;;;;;;;2.90;1.50;;;8.20;99.90;;;;;;5064853;28;20572;-72
2021/03/13 07:18:11;;;;;;;3.63;1.40;;;8.30;99.90;;;;;;5066258;28;20442;-72
2021/03/13 07:20:56;;;;;;;8.63;1.87;;;8.40;99.90;;;;;;5065272;28;20455;-72
2021/03/13 07:23:43;;;;;;;6.23;1.63;;;8.40;99.90;;;;;;5063683;28;20485;-70
2021/03/13 07:26:35;;;;;;;4.40;1.83;;;8.40;99.90;;;;;;5061147;28;20544;-72
2021/03/13 07:29:22;;;;;;;10.80;2.80;;;8.40;99.90;;;;;;5061301;28;20562;-71
2021/03/13 07:32:15;;;;;;;4.60;1.33;;;8.50;99.90;;;;;;5063495;28;20866;-71
2021/03/13 07:35:04;;;;;;;6.90;2.07;;;8.50;99.90;;;;;;5064594;28;20514;-72
2021/03/13 07:37:54;;;;;;;5.47;1.50;;;8.60;99.90;;;;;;5063477;28;20594;-71
2021/03/13 07:40:43;;;;;;;3.50;1.63;;;8.60;99.90;;;;;;5054577;28;20499;-71
2021/03/13 07:43:32;;;;;;;7.70;1.40;;;8.60;99.90;;;;;;5064489;28;20536;-71
2021/03/13 07:46:17;;;;;;;8.43;2.00;;;8.70;99.90;;;;;;5064542;28;20445;-71
2021/03/13 07:49:04;;;;;;;3.57;1.60;;;8.70;99.90;;;;;;5068893;28;20447;-71
2021/03/13 07:51:49;;;;;;;3.63;1.53;;;8.70;99.90;;;;;;5056914;28;20496;-72
2021/03/13 07:54:38;;;;;;;5.30;1.23;;;8.70;99.90;;;;;;5060744;28;20949;-71
2021/03/13 07:57:23;;;;;;;6.73;1.30;;;8.70;99.90;;;;;;5062865;28;20498;-71
2021/03/13 08:00:10;;;;;;;8.00;1.53;;;8.80;99.90;;;;;;5057989;28;20473;-72
2021/03/13 08:02:54;;;;;;;4.33;1.20;;;8.80;99.90;;;;;;5064920;28;20805;-72
2021/03/13 08:05:55;;;;;;;10.07;1.30;;;8.90;99.90;;;;;;5066052;28;20471;-71
2021/03/13 08:08:42;;;;;;;8.20;1.67;;;8.90;99.90;;;;;;5064619;28;20465;-71
2021/03/13 08:11:47;;;;;;;3.20;1.30;;;8.90;99.90;;;;;;5064176;28;20802;-71
2021/03/13 08:14:32;;;;;;;2.47;1.37;;;9.00;99.90;;;;;;5069139;28;20489;-71
2021/03/13 08:17:18;;;;;;;6.00;1.53;;;9.00;99.90;;;;;;5065685;28;20497;-71
2021/03/13 08:20:06;;;;;;;10.30;2.20;;;9.10;99.90;;;;;;5065624;28;20447;-71
2021/03/13 08:23:18;;;;;;;8.10;1.73;;;9.10;99.90;;;;;;5063199;28;20942;-72
2021/03/13 08:26:03;;;;;;;6.83;1.40;;;9.20;99.90;;;;;;5066081;28;20520;-73
2021/03/13 08:28:56;;;;;;;5.13;1.40;;;9.20;99.90;;;;;;5063953;28;20446;-72
2021/03/13 08:31:47;;;;;;;2.43;1.13;;;9.20;99.90;;;;;;5062261;28;20454;-73
2021/03/13 08:34:44;;;;;;;6.10;2.13;;;9.20;99.90;;;;;;5067321;28;20937;-72
2021/03/13 08:37:29;;;;;;;4.00;1.30;;;9.30;99.90;;;;;;5065852;28;20820;-72
2021/03/13 08:40:22;;;;;;;5.30;1.10;;;9.30;99.90;;;;;;5065892;28;20454;-72
2021/03/13 08:43:39;;;;;;;7.97;1.00;;;9.40;99.90;;;;;;5064721;28;20461;-70
2021/03/13 08:46:44;;;;;;;2.60;1.20;;;9.40;99.90;;;;;;5063188;28;20464;-69
2021/03/13 08:49:51;;;;;;;4.70;1.30;;;9.50;99.90;;;;;;5068327;28;20446;-72
2021/03/13 08:52:36;;;;;;;3.93;1.30;;;9.60;99.90;;;;;;5067627;28;20500;-71
2021/03/13 08:55:32;;;;;;;4.40;1.00;;;9.60;99.90;;;;;;5065519;28;20842;-72
2021/03/13 08:58:42;;;;;;;4.73;1.40;;;9.70;99.90;;;;;;5064145;28;20442;-72
2021/03/13 09:01:27;;;;;;;5.60;1.20;;;9.70;99.90;;;;;;5068885;28;20418;-72
2021/03/13 09:04:12;;;;;;;5.80;1.10;;;9.70;99.90;;;;;;5068559;28;20476;-72
2021/03/13 09:06:57;;;;;;;9.50;1.40;;;9.70;99.90;;;;;;5066706;28;20458;-72
2021/03/13 09:09:43;;;;;;;5.77;1.13;;;9.70;99.90;;;;;;5065761;28;20496;-72
2021/03/13 09:12:30;;;;;;;6.47;1.60;;;9.70;99.90;;;;;;5066911;28;21199;-72
2021/03/13 09:15:16;;;;;;;3.27;1.10;;;9.60;99.90;;;;;;5060225;28;20492;-72
2021/03/13 09:18:01;;;;;;;3.50;1.30;;;9.70;99.90;;;;;;5063312;28;20454;-72
2021/03/13 09:20:46;;;;;;;8.60;1.10;;;9.70;99.90;;;;;;5066177;28;20516;-72
2021/03/13 09:23:31;;;;;;;13.90;2.20;;;9.80;99.90;;;;;;5065652;28;20409;-73
2021/03/13 09:26:19;;;;;;;4.73;1.60;;;9.80;99.90;;;;;;5062950;28;20507;-72
2021/03/13 09:29:06;;;;;;;6.20;1.10;;;9.80;99.90;;;;;;5062731;28;20505;-72
2021/03/13 09:31:55;;;;;;;5.00;1.63;;;9.90;99.90;;;;;;5058710;28;20425;-72
2021/03/13 09:34:42;;;;;;;3.90;1.00;;;9.90;99.90;;;;;;5058937;28;20501;-72
2021/03/13 09:37:29;;;;;;;6.03;1.70;;;9.90;99.90;;;;;;5068881;28;21021;-72
2021/03/13 09:40:16;;;;;;;6.50;0.73;;;9.80;99.90;;;;;;5061714;28;20465;-72
2021/03/13 09:43:01;;;;;;;2.90;1.00;;;9.80;99.90;;;;;;5060931;28;20586;-72
2021/03/13 09:45:47;;;;;;;4.50;2.07;;;9.70;99.90;;;;;;5066496;28;20493;-73
2021/03/13 09:48:32;;;;;;;5.03;1.17;;;9.70;99.90;;;;;;5061191;28;20501;-73
2021/03/13 09:53:53;;;;;;;4.17;1.20;;;9.70;99.90;;;;;;5716572;22;20575;-72
2021/03/13 09:56:38;;;;;;;8.53;1.00;;;9.70;99.90;;;;;;5023336;28;21013;-71
2021/03/13 09:59:23;;;;;;;6.57;1.40;;;9.70;99.90;;;;;;5019830;28;20671;-72
2021/03/13 10:02:10;;;;;;;8.00;1.60;;;9.70;99.90;;;;;;5019944;28;21167;-71
2021/03/13 10:04:57;;;;;;;2.97;1.20;;;9.60;99.90;;;;;;5005838;28;20547;-73
2021/03/13 10:07:43;;;;;;;3.20;0.93;;;9.60;99.90;;;;;;5003712;28;20449;-73
2021/03/13 10:10:28;;;;;;;1.60;0.77;;;9.50;99.90;;;;;;5007835;28;20775;-71
2021/03/13 10:13:16;;;;;;;5.50;1.20;;;9.40;99.90;;;;;;5006514;28;20506;-71
2021/03/13 10:16:02;;;;;;;1.83;0.70;;;9.30;99.90;;;;;;5002357;28;20477;-71
2021/03/13 10:18:48;;;;;;;2.30;1.00;;;9.20;99.90;;;;;;5005614;28;20975;-72
2021/03/13 10:21:33;;;;;;;3.20;1.10;;;9.10;99.90;;;;;;5008337;28;20513;-72
2021/03/13 10:24:18;;;;;;;2.17;0.98;;;9.10;99.90;;;;;;5003408;28;20481;-71
2021/03/13 10:27:05;;;;;;;4.83;1.40;;;9.00;99.90;;;;;;5003661;28;20206;-71
2021/03/13 10:29:59;;;;;;;3.23;1.43;;;9.10;99.90;;;;;;4998833;28;20534;-69
2021/03/13 10:32:49;;;;;;;3.13;1.30;;;9.00;99.90;;;;;;5001069;28;20453;-68
2021/03/13 10:35:35;;;;;;;2.30;1.10;;;9.10;99.90;;;;;;5001076;28;21022;-73
2021/03/13 10:38:20;;;;;;;3.87;1.20;;;9.10;99.90;;;;;;5001813;28;20497;-73
2021/03/13 10:41:08;;;;;;;2.63;1.23;;;9.00;99.90;;;;;;5004480;28;20533;-72
2021/03/13 10:43:54;;;;;;;3.00;1.00;;;9.00;99.90;;;;;;5003818;28;21130;-73
2021/03/13 10:46:39;;;;;;;2.83;1.63;;;9.10;99.90;;;;;;5004734;28;20962;-72
2021/03/13 10:49:28;;;;;;;4.13;1.27;;;9.10;99.90;;;;;;5000991;28;20445;-73
2021/03/13 10:52:27;;;;;;;2.77;1.00;;;9.10;99.90;;;;;;5007586;28;20452;-73
2021/03/13 10:55:12;;;;;;;4.77;1.17;;;9.10;99.90;;;;;;4999468;28;20481;-72
2021/03/13 10:58:01;;;;;;;2.23;0.80;;;9.00;99.90;;;;;;5004710;28;20435;-73
2021/03/13 11:00:47;;;;;;;3.93;1.17;;;9.00;99.90;;;;;;5006529;28;20611;-72
2021/03/13 11:03:32;;;;;;;4.07;1.00;;;9.00;99.90;;;;;;5007033;28;20576;-72
2021/03/13 11:06:25;;;;;;;6.60;1.20;;;9.00;99.90;;;;;;5007407;28;20541;-72
2021/03/13 11:09:15;;;;;;;2.97;1.20;;;9.00;99.90;;;;;;5007189;28;20563;-72
2021/03/13 11:12:01;;;;;;;3.10;1.33;;;9.10;99.90;;;;;;5008268;28;20420;-72
2021/03/13 11:14:45;;;;;;;2.40;1.10;;;9.10;99.90;;;;;;5008349;28;20461;-72
2021/03/13 11:17:31;;;;;;;4.60;1.27;;;9.10;99.90;;;;;;5005037;28;20455;-72
2021/03/13 11:20:16;;;;;;;2.53;1.10;;;9.20;99.90;;;;;;5008523;28;20553;-73
2021/03/13 11:23:02;;;;;;;4.23;1.40;;;9.20;99.90;;;;;;5000846;28;20460;-73
2021/03/13 11:25:48;;;;;;;5.30;1.27;;;9.20;99.90;;;;;;5004427;28;20508;-73
2021/03/13 11:28:34;;;;;;;5.27;1.17;;;9.20;99.90;;;;;;5005094;28;20884;-73
2021/03/13 11:31:20;;;;;;;11.50;1.60;;;9.10;99.90;;;;;;5005492;28;20979;-72
2021/03/13 11:34:05;;;;;;;1.77;0.80;;;8.90;99.90;;;;;;5001932;28;20605;-73
2021/03/13 11:36:50;;;;;;;3.70;0.87;;;8.60;99.90;;;;;;5007765;28;20468;-72
2021/03/13 11:39:35;;;;;;;2.83;0.80;;;8.10;99.90;;;;;;5006436;28;20965;-71
2021/03/13 11:42:27;;;;;;;3.87;0.67;;;7.80;99.90;;;;;;5002529;28;20254;-72
2021/03/13 11:45:14;;;;;;;3.20;0.80;;;7.50;99.90;;;;;;4995207;28;20543;-72
2021/03/13 11:47:59;;;;;;;4.10;0.60;;;7.40;99.90;;;;;;5003389;28;20818;-71
2021/03/13 11:50:45;;;;;;;2.43;0.80;;;7.10;99.90;;;;;;5000718;28;21161;-72
2021/03/13 11:53:30;;;;;;;1.27;0.60;;;7.00;99.90;;;;;;5005424;28;20457;-70
2021/03/13 11:56:15;;;;;;;1.43;0.80;;;6.80;99.90;;;;;;5007067;28;20450;-71
2021/03/13 11:59:01;;;;;;;1.20;0.60;;;6.70;99.90;;;;;;5006325;28;20449;-71
2021/03/13 12:01:46;;;;;;;1.43;0.70;;;6.80;99.90;;;;;;5000481;28;20876;-72
2021/03/13 12:04:31;;;;;;;1.50;0.67;;;6.80;99.90;;;;;;5007226;28;20945;-71
2021/03/13 12:07:16;;;;;;;1.50;0.63;;;6.90;99.90;;;;;;5006497;28;21188;-72
2021/03/13 12:10:02;;;;;;;1.30;0.70;;;6.90;99.90;;;;;;5002954;28;20465;-71
2021/03/13 12:12:48;;;;;;;3.20;0.70;;;7.00;99.90;;;;;;4995286;28;20992;-71
2021/03/13 12:15:34;;;;;;;1.27;0.60;;;7.00;99.90;;;;;;5005754;28;20612;-71
2021/03/13 12:18:19;;;;;;;1.50;0.90;;;6.90;99.90;;;;;;5005778;28;20531;-71
2021/03/13 12:21:04;;;;;;;1.60;0.70;;;6.90;99.90;;;;;;5000626;28;20485;-71
2021/03/13 12:23:49;;;;;;;2.03;1.30;;;7.00;99.90;;;;;;5002033;28;20499;-71
2021/03/13 12:26:34;;;;;;;2.97;1.00;;;7.00;99.90;;;;;;5002742;28;20786;-72
2021/03/13 12:29:19;;;;;;;1.60;0.60;;;7.10;99.90;;;;;;5002786;28;20458;-72
2021/03/13 12:32:06;;;;;;;1.90;0.80;;;7.20;99.90;;;;;;4998903;28;20427;-71
2021/03/13 12:34:51;;;;;;;2.80;0.80;;;7.20;99.90;;;;;;5002407;28;20488;-72
2021/03/13 12:37:37;;;;;;;1.47;0.80;;;7.30;99.90;;;;;;5002193;28;20416;-72
2021/03/13 12:40:22;;;;;;;2.00;0.80;;;7.30;99.90;;;;;;5006689;28;20444;-71
2021/03/13 12:43:07;;;;;;;1.27;0.60;;;7.30;99.90;;;;;;5004582;28;20516;-71
2021/03/13 12:45:52;;;;;;;1.70;0.90;;;7.30;99.90;;;;;;5002638;28;20416;-71
2021/03/13 12:48:38;;;;;;;2.53;0.70;;;7.20;99.90;;;;;;4996175;28;20572;-71
2021/03/13 12:51:23;;;;;;;3.10;0.70;;;7.30;99.90;;;;;;5004925;28;20524;-71
2021/03/13 12:54:08;;;;;;;1.47;0.77;;;7.30;99.90;;;;;;5006321;28;20477;-72
2021/03/13 12:56:53;;;;;;;3.60;0.70;;;7.30;99.90;;;;;;4996686;28;21014;-71
2021/03/13 12:59:38;;;;;;;3.33;0.80;;;7.30;99.90;;;;;;4997344;28;22437;-71
2021/03/13 13:02:23;;;;;;;3.40;0.90;;;7.30;99.90;;;;;;5006821;28;20456;-71
2021/03/13 13:05:11;;;;;;;2.43;0.90;;;7.30;99.90;;;;;;5005240;28;20500;-71
2021/03/13 13:07:56;;;;;;;2.23;0.90;;;7.30;99.90;;;;;;5006258;28;20423;-72
2021/03/13 13:10:41;;;;;;;6.23;1.37;;;7.30;99.90;;;;;;5006225;28;20505;-71
2021/03/13 13:13:27;;;;;;;4.90;1.20;;;7.30;99.90;;;;;;5007838;28;20511;-71
2021/03/13 13:16:12;;;;;;;4.90;1.47;;;7.40;99.90;;;;;;5003501;28;21024;-71
2021/03/13 13:18:57;;;;;;;9.83;2.00;;;7.50;99.90;;;;;;5008639;28;21146;-71
2021/03/13 13:21:43;;;;;;;3.80;1.50;;;7.60;99.90;;;;;;5002191;28;20446;-71
2021/03/13 13:24:28;;;;;;;6.10;1.20;;;7.60;99.90;;;;;;5009330;28;21855;-71
2021/03/13 13:27:13;;;;;;;6.33;1.20;;;7.70;99.90;;;;;;5004445;28;20878;-71
2021/03/13 13:29:58;;;;;;;4.90;1.87;;;7.80;99.90;;;;;;5000566;28;20946;-71
2021/03/13 13:32:44;;;;;;;3.20;1.10;;;7.90;99.90;;;;;;5009304;28;21030;-71
2021/03/13 13:35:29;;;;;;;9.60;1.37;;;7.90;99.90;;;;;;5008300;28;20486;-71
2021/03/13 13:38:15;;;;;;;4.00;1.40;;;8.10;99.90;;;;;;5005099;28;20516;-71
2021/03/13 13:41:03;;;;;;;2.00;1.13;;;8.10;99.90;;;;;;5009561;28;20465;-71
2021/03/13 13:43:48;;;;;;;4.70;1.63;;;8.10;99.90;;;;;;4997397;28;21148;-71
2021/03/13 13:46:33;;;;;;;4.03;0.93;;;8.20;99.90;;;;;;5008207;28;20429;-71
2021/03/13 13:49:18;;;;;;;4.07;1.10;;;8.40;99.90;;;;;;5005674;28;21014;-71
2021/03/13 13:52:04;;;;;;;5.50;1.67;;;8.70;99.90;;;;;;5001863;28;20775;-71
2021/03/13 13:54:51;;;;;;;4.53;1.20;;;9.00;99.90;;;;;;5001839;28;20477;-71
2021/03/13 13:57:37;;;;;;;7.03;1.63;;;9.10;99.90;;;;;;4997766;28;20533;-72
2021/03/13 14:00:25;;;;;;;8.43;2.23;;;9.20;99.90;;;;;;5005888;28;20459;-72
2021/03/13 14:03:10;;;;;;;2.90;1.20;;;9.50;99.90;;;;;;5005275;28;20584;-71
2021/03/13 14:05:55;;;;;;;5.07;1.20;;;9.70;99.90;;;;;;5003693;28;20499;-71
2021/03/13 14:08:41;;;;;;;5.47;1.67;;;9.50;99.90;;;;;;5003042;28;20469;-71
2021/03/13 14:11:27;;;;;;;6.00;1.33;;;9.30;99.90;;;;;;5006505;28;20425;-71
2021/03/13 14:14:12;;;;;;;9.30;2.23;;;9.20;99.90;;;;;;5005282;28;20493;-71
2021/03/13 14:16:57;;;;;;;2.87;1.33;;;9.00;99.90;;;;;;5002900;28;20461;-72
2021/03/13 14:19:42;;;;;;;12.03;1.83;;;8.80;99.90;;;;;;5008317;28;20505;-72
2021/03/13 14:22:27;;;;;;;8.57;2.20;;;8.70;99.90;;;;;;5002049;28;20534;-72
2021/03/13 14:25:14;;;;;;;5.83;1.87;;;8.60;99.90;;;;;;5005977;28;20803;-72
2021/03/13 14:28:00;;;;;;;6.83;1.50;;;8.40;99.90;;;;;;5003062;28;20449;-72
2021/03/13 14:30:45;;;;;;;12.37;2.30;;;8.30;99.90;;;;;;4998800;28;20424;-71
2021/03/13 14:33:30;;;;;;;5.83;1.60;;;8.30;99.90;;;;;;5008010;28;20482;-72
2021/03/13 14:36:15;;;;;;;8.30;2.10;;;8.30;99.90;;;;;;5004000;28;20490;-71
2021/03/13 14:39:00;;;;;;;3.30;1.40;;;8.30;99.90;;;;;;4999697;28;20485;-72
2021/03/13 14:41:50;;;;;;;8.53;1.77;;;8.10;99.90;;;;;;4999787;28;20467;-72
2021/03/13 14:44:35;;;;;;;6.67;2.20;;;8.10;99.90;;;;;;5001739;28;20469;-72